Time;durP1;ratioP1;P1;durP2;ratioP2;P2;SDS_P1;SDS_P2;PMS_P1;PMS_P2;Temp;Humidity;BMP_temperature;BMP_pressure;BME280_temperature;BME280_humidity;BME280_pressure;Samples;Min_cycle;Max_cycle;Signal;HPM_P1;HPM_P2
2021/03/09 00:01:36;;;;;;;8.83;8.00;;;;;;;;;;5031860;28;20171;-77
2021/03/09 00:04:02;;;;;;;9.27;7.60;;;;;;;;;;5033210;28;20183;-76
2021/03/09 00:06:28;;;;;;;8.63;7.80;;;;;;;;;;5033040;28;20299;-77
2021/03/09 00:08:54;;;;;;;8.33;7.53;;;;;;;;;;5033094;28;20318;-77
2021/03/09 00:11:20;;;;;;;11.73;7.87;;;;;;;;;;5033156;28;20183;-77
2021/03/09 00:13:46;;;;;;;8.93;7.97;;;;;;;;;;5032844;28;20294;-77
2021/03/09 00:16:12;;;;;;;9.37;7.77;;;;;;;;;;5032855;28;20246;-77
2021/03/09 00:18:38;;;;;;;9.30;7.83;;;;;;;;;;5032971;28;20179;-77
2021/03/09 00:21:04;;;;;;;7.83;7.03;;;;;;;;;;5032870;28;20321;-77
2021/03/09 00:23:30;;;;;;;8.63;7.83;;;;;;;;;;5031506;28;20179;-77
2021/03/09 00:25:57;;;;;;;8.27;7.20;;;;;;;;;;5032942;28;20653;-77
2021/03/09 00:28:23;;;;;;;9.37;7.03;;;;;;;;;;5024270;28;20178;-77
2021/03/09 00:30:49;;;;;;;8.37;7.57;;;;;;;;;;5032913;28;20205;-77
2021/03/09 00:33:15;;;;;;;10.03;7.53;;;;;;;;;;5032227;28;20194;-78
2021/03/09 00:35:41;;;;;;;8.50;7.70;;;;;;;;;;5031395;28;20194;-77
2021/03/09 00:38:07;;;;;;;8.40;7.60;;;;;;;;;;5032460;28;20568;-77
2021/03/09 00:40:35;;;;;;;8.43;7.57;;;;;;;;;;5032647;28;20228;-76
2021/03/09 00:43:01;;;;;;;8.03;7.23;;;;;;;;;;5031337;28;20583;-76
2021/03/09 00:45:26;;;;;;;8.23;7.37;;;4.80;99.90;;;;;;5032314;28;20183;-77
2021/03/09 00:47:52;;;;;;;8.57;7.23;;;2.20;99.90;;;;;;5032426;28;20569;-77
2021/03/09 00:50:18;;;;;;;7.93;7.20;;;2.10;99.90;;;;;;5032012;28;20188;-76
2021/03/09 00:52:44;;;;;;;7.73;6.83;;;2.20;99.90;;;;;;5032456;28;20236;-77
2021/03/09 00:55:10;;;;;;;11.63;7.43;;;2.20;99.90;;;;;;5032233;28;20643;-77
2021/03/09 00:57:36;;;;;;;7.90;7.10;;;2.10;99.90;;;;;;5030800;28;20190;-77
2021/03/09 01:00:02;;;;;;;7.80;7.10;;;2.10;99.90;;;;;;5032184;28;20320;-77
2021/03/09 01:02:27;;;;;;;7.70;7.00;;;2.10;99.90;;;;;;5030819;28;20179;-76
2021/03/09 01:04:53;;;;;;;8.57;7.77;;;2.10;99.90;;;;;;5032028;28;20600;-77
2021/03/09 01:07:19;;;;;;;8.37;7.30;;;2.10;99.90;;;;;;5030549;28;20242;-77
2021/03/09 01:09:45;;;;;;;8.47;7.17;;;2.10;99.90;;;;;;5030876;28;20208;-77
2021/03/09 01:12:11;;;;;;;8.67;7.33;;;2.10;99.90;;;;;;5030699;28;20650;-77
2021/03/09 01:14:36;;;;;;;7.93;7.13;;;2.10;99.90;;;;;;5031879;28;20180;-77
2021/03/09 01:17:03;;;;;;;8.40;6.70;;;2.10;99.90;;;;;;5031857;28;20288;-77
2021/03/09 01:19:28;;;;;;;7.83;7.03;;;2.10;99.90;;;;;;5031915;28;20193;-76
2021/03/09 01:21:54;;;;;;;8.43;7.63;;;2.10;99.90;;;;;;5031577;28;20197;-77
2021/03/09 01:24:19;;;;;;;7.80;7.00;;;2.10;99.90;;;;;;5031571;28;20186;-77
2021/03/09 01:26:46;;;;;;;8.00;7.20;;;2.00;99.90;;;;;;5032075;28;20572;-77
2021/03/09 01:29:11;;;;;;;9.57;7.60;;;1.90;99.90;;;;;;5031878;28;20178;-77
2021/03/09 01:31:37;;;;;;;8.60;7.70;;;1.90;99.90;;;;;;5030339;28;20178;-77
2021/03/09 01:34:03;;;;;;;8.63;7.83;;;1.90;99.90;;;;;;5031695;28;20199;-77
2021/03/09 01:36:29;;;;;;;8.10;7.33;;;1.80;99.90;;;;;;5028755;28;20194;-77
2021/03/09 01:38:54;;;;;;;8.07;7.27;;;1.80;99.90;;;;;;5020358;28;20182;-77
2021/03/09 01:41:20;;;;;;;8.97;7.63;;;1.80;99.90;;;;;;5031287;28;20205;-77
2021/03/09 01:43:46;;;;;;;8.00;7.20;;;1.80;99.90;;;;;;5031567;28;20264;-77
2021/03/09 01:46:12;;;;;;;8.53;7.60;;;1.70;99.90;;;;;;5033254;28;20577;-76
2021/03/09 01:48:45;;;;;;;9.53;7.50;;;1.70;99.90;;;;;;5036009;28;20202;-77
2021/03/09 01:51:19;;;;;;;8.80;7.83;;;1.80;99.90;;;;;;5034500;28;20718;-78
2021/03/09 01:53:45;;;;;;;9.00;8.10;;;1.70;99.90;;;;;;5035681;28;20208;-77
2021/03/09 01:56:13;;;;;;;8.07;7.03;;;1.70;99.90;;;;;;5035512;28;20197;-77
2021/03/09 01:58:42;;;;;;;8.37;7.43;;;1.70;99.90;;;;;;5035494;28;20201;-77
2021/03/09 02:01:08;;;;;;;10.00;7.53;;;1.70;99.90;;;;;;5035427;28;20185;-77
2021/03/09 02:03:34;;;;;;;9.20;7.40;;;1.70;99.90;;;;;;5034507;28;20194;-76
2021/03/09 02:06:00;;;;;;;9.07;7.70;;;1.70;99.90;;;;;;5035314;28;20564;-77
2021/03/09 02:08:27;;;;;;;8.23;7.27;;;1.70;99.90;;;;;;5035127;28;20615;-77
2021/03/09 02:10:53;;;;;;;8.50;7.70;;;1.60;99.90;;;;;;5035479;28;20645;-77
2021/03/09 02:13:27;;;;;;;8.03;7.23;;;1.70;99.90;;;;;;5033954;28;20299;-77
2021/03/09 02:15:57;;;;;;;7.97;7.17;;;;;;;;;;5035063;28;20641;-77
2021/03/09 02:18:39;;;;;;;7.80;7.00;;;;;;;;;;5033928;28;20262;-77
2021/03/09 02:21:23;;;;;;;8.40;7.60;;;;;;;;;;5033628;28;20233;-77
2021/03/09 02:24:01;;;;;;;8.87;7.97;;;;;;;;;;5035162;28;20190;-77
2021/03/09 02:26:37;;;;;;;9.03;8.13;;;;;;;;;;5034918;28;20208;-77
2021/03/09 02:29:22;;;;;;;8.37;7.57;;;;;;;;;;5033749;28;20197;-77
2021/03/09 02:31:50;;;;;;;8.73;7.83;;;;;;;;;;5034994;28;20183;-77
2021/03/09 02:34:21;;;;;;;8.33;7.13;;;;;;;;;;5033434;28;20206;-77
2021/03/09 02:36:47;;;;;;;8.87;7.93;;;;;;;;;;5034720;28;20200;-77
2021/03/09 02:39:14;;;;;;;8.97;8.17;;;;;;;;;;5033649;28;20190;-77
2021/03/09 02:41:44;;;;;;;9.10;7.53;;;;;;;;;;5034717;28;20179;-76
2021/03/09 02:44:11;;;;;;;8.47;7.67;;;;;;;;;;5034685;28;20188;-77
2021/03/09 02:46:38;;;;;;;8.73;7.43;;;;;;;;;;5034467;28;20632;-77
2021/03/09 02:49:06;;;;;;;9.07;8.17;;;;;;;;;;5034631;28;20185;-77
2021/03/09 02:51:33;;;;;;;8.93;8.10;;;;;;;;;;5034517;28;20549;-77
2021/03/09 02:54:00;;;;;;;9.73;8.20;;;;;;;;;;5034386;28;20198;-77
2021/03/09 02:56:26;;;;;;;9.83;8.03;;;;;;;;;;5034361;28;20202;-77
2021/03/09 02:58:54;;;;;;;9.07;8.10;;;;;;;;;;5033123;28;20182;-77
2021/03/09 03:01:21;;;;;;;9.73;8.73;;;;;;;;;;5034290;28;20189;-77
2021/03/09 03:03:48;;;;;;;9.90;8.23;;;;;;;;;;5034193;28;20182;-77
2021/03/09 03:06:15;;;;;;;8.80;7.90;;;;;;;;;;5034263;28;20189;-77
2021/03/09 03:08:41;;;;;;;9.03;7.30;;;;;;;;;;5034258;28;20190;-77
2021/03/09 03:11:08;;;;;;;8.93;7.67;;;1.80;99.90;;;;;;5034146;28;20182;-77
2021/03/09 03:13:35;;;;;;;8.70;7.90;;;;;;;;;;5033979;28;20209;-76
2021/03/09 03:16:01;;;;;;;8.83;7.93;;;;;;;;;;5021236;28;20184;-77
2021/03/09 03:18:30;;;;;;;8.73;7.83;;;;;;;;;;5015901;28;20180;-77
2021/03/09 03:20:56;;;;;;;9.83;8.07;;;;;;;;;;5023808;28;20182;-77
2021/03/09 03:23:23;;;;;;;11.50;8.00;;;;;;;;;;5032612;28;20178;-77
2021/03/09 03:25:53;;;;;;;9.60;8.13;;;;;;;;;;5033764;28;20613;-77
2021/03/09 03:28:20;;;;;;;10.00;8.83;;;;;;;;;;5034291;28;20234;-77
2021/03/09 03:30:46;;;;;;;11.10;8.60;;;;;;;;;;5024703;28;20588;-77
2021/03/09 03:33:12;;;;;;;10.20;7.70;;;;;;;;;;5029456;28;20552;-77
2021/03/09 03:35:38;;;;;;;11.73;8.10;;;;;;;;;;5031569;28;20181;-77
2021/03/09 03:38:05;;;;;;;9.20;7.87;;;;;;;;;;5029622;28;20195;-77
2021/03/09 03:40:31;;;;;;;12.20;8.73;;;;;;;;;;5033337;28;20258;-76
2021/03/09 03:42:58;;;;;;;10.33;8.43;;;;;;;;;;5032939;28;20732;-77
2021/03/09 03:45:24;;;;;;;9.83;8.83;;;;;;;;;;5033081;28;20182;-76
2021/03/09 03:47:58;;;;;;;11.60;8.40;;;;;;;;;;5032917;28;20715;-77
2021/03/09 03:50:24;;;;;;;10.23;8.93;;;;;;;;;;5032824;28;20181;-77
2021/03/09 03:53:16;;;;;;;12.13;8.80;;;;;;;;;;5015082;28;20202;-77
2021/03/09 03:56:01;;;;;;;9.87;8.53;;;;;;;;;;5029720;28;20680;-77
2021/03/09 03:58:32;;;;;;;13.43;9.23;;;;;;;;;;5033101;28;20181;-77
2021/03/09 04:01:02;;;;;;;13.33;9.10;;;;;;;;;;5032902;28;20166;-76
2021/03/09 04:03:30;;;;;;;12.53;9.20;;;;;;;;;;5031390;28;20183;-77
2021/03/09 04:05:58;;;;;;;11.50;9.60;;;;;;;;;;5032461;28;20213;-77
2021/03/09 04:08:25;;;;;;;12.47;9.20;;;;;;;;;;5032001;28;20649;-77
2021/03/09 04:10:52;;;;;;;10.27;8.70;;;;;;;;;;5032468;28;20604;-77
2021/03/09 04:13:19;;;;;;;13.80;8.90;;;;;;;;;;5032370;28;20249;-77
2021/03/09 04:15:45;;;;;;;10.37;9.23;;;;;;;;;;5032404;28;20239;-77
2021/03/09 04:18:13;;;;;;;11.87;8.90;;;;;;;;;;5031276;28;20285;-76
2021/03/09 04:20:41;;;;;;;9.63;8.57;;;;;;;;;;5032363;28;20241;-77
2021/03/09 04:23:07;;;;;;;9.23;8.30;;;;;;;;;;5030914;28;20630;-77
2021/03/09 04:25:37;;;;;;;9.40;8.37;;;;;;;;;;5032281;28;20201;-77
2021/03/09 04:28:03;;;;;;;8.67;7.77;;;;;;;;;;5030556;28;20208;-77
2021/03/09 04:30:31;;;;;;;12.13;9.30;;;;;;;;;;5031038;28;20178;-77
2021/03/09 04:32:57;;;;;;;9.93;8.90;;;;;;;;;;5031878;28;20286;-77
2021/03/09 04:35:23;;;;;;;12.33;9.10;;;;;;;;;;5032124;28;20261;-77
2021/03/09 04:37:49;;;;;;;10.00;9.00;;;;;;;;;;5032674;28;20281;-77
2021/03/09 04:40:15;;;;;;;10.83;9.63;;;;;;;;;;5033247;28;20186;-77
2021/03/09 04:42:41;;;;;;;11.37;10.20;;;;;;;;;;5033160;28;20236;-77
2021/03/09 04:45:07;;;;;;;12.47;10.83;;;;;;;;;;5032011;28;20190;-78
2021/03/09 04:47:34;;;;;;;15.17;10.50;;;;;;;;;;5033161;28;20208;-77
2021/03/09 04:50:00;;;;;;;13.60;10.37;;;;;;;;;;5031794;28;20217;-77
2021/03/09 04:52:26;;;;;;;14.43;10.90;;;;;;;;;;5032942;28;20203;-77
2021/03/09 04:54:53;;;;;;;76.30;26.83;;;;;;;;;;5032798;28;20186;-77
2021/03/09 04:57:20;;;;;;;23.10;13.33;;;;;;;;;;5033392;28;20202;-77
2021/03/09 04:59:46;;;;;;;15.17;11.93;;;;;;;;;;5031810;28;20181;-77
2021/03/09 05:02:12;;;;;;;35.40;16.33;;;;;;;;;;5023625;28;20228;-76
2021/03/09 05:04:39;;;;;;;16.77;12.57;;;;;;;;;;5029628;28;20656;-76
2021/03/09 05:07:05;;;;;;;13.67;11.50;;;;;;;;;;5027741;28;20214;-76
2021/03/09 05:09:32;;;;;;;12.70;10.30;;;;;;;;;;5032569;28;20228;-77
2021/03/09 05:11:58;;;;;;;11.87;10.63;;;;;;;;;;5030561;28;20190;-76
2021/03/09 05:14:24;;;;;;;12.90;10.77;;;;;;;;;;5032742;28;20272;-76
2021/03/09 05:16:50;;;;;;;13.50;10.63;;;;;;;;;;5014349;28;20206;-77
2021/03/09 05:19:16;;;;;;;15.33;10.90;;;;;;;;;;5031793;28;20556;-77
2021/03/09 05:21:43;;;;;;;21.93;14.23;;;;;;;;;;5032823;28;20240;-76
2021/03/09 05:24:09;;;;;;;20.67;14.17;;;;;;;;;;5032543;28;20556;-77
2021/03/09 05:26:35;;;;;;;13.73;11.67;;;;;;;;;;5030764;28;20206;-76
2021/03/09 05:29:01;;;;;;;14.40;11.70;;;;;;;;;;5032467;28;20182;-77
2021/03/09 05:31:27;;;;;;;13.47;10.87;;;;;;;;;;5031048;28;20182;-77
2021/03/09 05:33:53;;;;;;;16.03;11.20;;;;;;;;;;5032312;28;20571;-77
2021/03/09 05:36:19;;;;;;;16.13;10.80;;;;;;;;;;5031181;28;20201;-77
2021/03/09 05:38:45;;;;;;;13.07;11.03;;;;;;;;;;5029038;28;20570;-77
2021/03/09 05:41:11;;;;;;;15.37;11.53;;;;;;;;;;5032465;28;20269;-77
2021/03/09 05:43:37;;;;;;;14.60;11.93;;;;;;;;;;5032151;28;20185;-77
2021/03/09 05:46:03;;;;;;;14.93;11.93;;;;;;;;;;5032174;28;20280;-77
2021/03/09 05:48:29;;;;;;;12.43;10.90;;;;;;;;;;5030342;28;20211;-77
2021/03/09 05:50:55;;;;;;;14.77;11.30;;;;;;;;;;5014550;28;20186;-77
2021/03/09 05:53:22;;;;;;;14.60;11.40;;;;;;;;;;5032105;28;20558;-77
2021/03/09 05:55:48;;;;;;;14.03;10.70;;;;;;;;;;5032023;28;20179;-77
2021/03/09 05:58:15;;;;;;;13.07;11.13;;;;;;;;;;5030799;28;20199;-77
2021/03/09 06:00:41;;;;;;;13.43;10.43;;;;;;;;;;5033103;28;20206;-77
2021/03/09 06:03:07;;;;;;;18.60;11.30;;;;;;;;;;5032100;28;20598;-77
2021/03/09 06:05:34;;;;;;;13.10;10.40;;;;;;;;;;5027498;28;20209;-77
2021/03/09 06:08:00;;;;;;;12.53;10.67;;;;;;;;;;5016507;28;20222;-77
2021/03/09 06:10:26;;;;;;;15.27;11.57;;;;;;;;;;5028593;28;20182;-77
2021/03/09 06:12:52;;;;;;;11.23;10.03;;;;;;;;;;5031846;28;20278;-77
2021/03/09 06:15:18;;;;;;;16.43;12.00;;;;;;;;;;5028227;28;20206;-77
2021/03/09 06:17:52;;;;;;;16.40;11.67;;;;;;;;;;5029788;28;20203;-77
2021/03/09 06:20:18;;;;;;;19.70;12.57;;;;;;;;;;5027714;28;20185;-77
2021/03/09 06:22:46;;;;;;;14.07;10.87;;;;;;;;;;5031501;28;20217;-77
2021/03/09 06:25:13;;;;;;;15.77;11.63;;;;;;;;;;5030697;28;20190;-77
2021/03/09 06:27:40;;;;;;;14.90;11.83;;;;;;;;;;5026471;28;20198;-77
2021/03/09 06:30:08;;;;;;;16.77;12.63;;;;;;;;;;5028001;28;20182;-77
2021/03/09 06:32:44;;;;;;;18.70;11.60;;;;;;;;;;5034392;28;20677;-76
2021/03/09 06:35:30;;;;;;;17.07;12.37;;;;;;;;;;5031333;28;20186;-77
2021/03/09 06:38:14;;;;;;;16.83;12.53;;;;;;;;;;5031698;28;20210;-77
2021/03/09 06:43:58;;;;;;;16.03;12.83;;;;;;;;;;5030800;28;20289;-77
2021/03/09 06:46:24;;;;;;;17.73;13.23;;;;;;;;;;5034282;28;20698;-77
2021/03/09 06:48:51;;;;;;;19.87;12.97;;;;;;;;;;5032457;28;20182;-77
2021/03/09 06:54:41;;;;;;;158.13;44.37;;;;;;;;;;5031139;28;20244;-73
2021/03/09 06:57:09;;;;;;;41.47;18.70;;;;;;;;;;5032634;28;20190;-77
2021/03/09 06:59:35;;;;;;;31.33;21.60;;;;;;;;;;5034313;28;20183;-76
2021/03/09 07:02:08;;;;;;;23.53;15.67;;;;;;;;;;5031102;28;20201;-77
2021/03/09 07:04:34;;;;;;;20.33;15.20;;;;;;;;;;5034045;28;20181;-77
2021/03/09 07:07:01;;;;;;;15.73;12.67;;;;;;;;;;5032236;28;20715;-77
2021/03/09 07:09:27;;;;;;;19.67;13.17;;;;;;;;;;5033684;28;20552;-76
2021/03/09 07:11:54;;;;;;;20.70;15.20;;;;;;;;;;5034575;28;20186;-81
2021/03/09 07:14:21;;;;;;;21.73;14.33;;;;;;;;;;5036073;28;20202;-81
2021/03/09 07:16:48;;;;;;;22.33;13.97;;;;;;;;;;5036933;28;20206;-81
2021/03/09 07:19:17;;;;;;;17.97;13.17;;;;;;;;;;5039255;28;20185;-80
2021/03/09 07:21:44;;;;;;;17.77;13.50;;;;;;;;;;5038702;28;20186;-80
2021/03/09 07:24:10;;;;;;;16.90;12.83;;;;;;;;;;5032018;28;20183;-80
2021/03/09 07:26:39;;;;;;;19.33;13.37;;;;;;;;;;5040399;28;20296;-80
2021/03/09 07:29:07;;;;;;;17.50;14.53;;;;;;;;;;5039277;28;20301;-81
2021/03/09 07:31:34;;;;;;;16.43;13.70;;;;;;;;;;5023199;28;20191;-81
2021/03/09 07:34:01;;;;;;;16.33;13.53;;;;;;;;;;5038720;28;20209;-81
2021/03/09 07:36:27;;;;;;;18.33;13.30;;;;;;;;;;5039648;28;20589;-81
2021/03/09 07:38:54;;;;;;;18.37;13.83;;;;;;;;;;5040206;28;20265;-81
2021/03/09 07:44:47;;;;;;;17.40;13.80;;;;;;;;;;5033827;28;20206;-76
2021/03/09 07:47:13;;;;;;;16.60;13.07;;;;;;;;;;5037621;28;20209;-81
2021/03/09 07:49:40;;;;;;;17.03;13.20;;;;;;;;;;5038855;28;20543;-81
2021/03/09 07:52:12;;;;;;;19.23;14.90;;;;;;;;;;5037168;28;20182;-81
2021/03/09 07:54:39;;;;;;;17.43;14.67;;;;;;;;;;5038172;28;20641;-81
2021/03/09 07:57:19;;;;;;;20.43;13.77;;;;;;;;;;5038196;28;20590;-81
2021/03/09 07:59:55;;;;;;;18.67;14.27;;;;;;;;;;5038828;28;20604;-80
2021/03/09 08:02:40;;;;;;;17.57;14.10;;;;;;;;;;5038495;28;20178;-81
2021/03/09 08:05:16;;;;;;;19.07;14.90;;;;;;;;;;5039325;28;20201;-81
2021/03/09 08:07:50;;;;;;;22.63;16.23;;;;;;;;;;5037531;28;20206;-81
2021/03/09 08:10:28;;;;;;;18.50;14.63;;;;;;;;;;5039368;28;20197;-80
2021/03/09 08:13:15;;;;;;;20.10;15.33;;;;;;;;;;5034358;28;20205;-80
2021/03/09 08:18:34;;;;;;;21.63;15.60;;;;;;;;;;5034644;22;20225;-81
2021/03/09 08:21:00;;;;;;;20.83;16.13;;;;;;;;;;5022990;28;20219;-81
2021/03/09 08:23:52;;;;;;;20.93;15.50;;;;;;;;;;5033437;28;20183;-81
2021/03/09 08:26:21;;;;;;;19.03;15.30;;;;;;;;;;5015832;28;20264;-80
2021/03/09 08:28:47;;;;;;;25.20;15.93;;;;;;;;;;5028727;28;20225;-80
2021/03/09 08:31:13;;;;;;;21.40;16.33;;;;;;;;;;5020435;28;20195;-81
2021/03/09 08:33:39;;;;;;;24.83;16.40;;;;;;;;;;5024771;28;20210;-81
2021/03/09 08:36:23;;;;;;;22.47;16.23;;;;;;;;;;5010068;28;20180;-80
2021/03/09 08:39:02;;;;;;;25.40;17.60;;;;;;;;;;5010237;28;20262;-80
2021/03/09 08:41:35;;;;;;;22.20;17.00;;;;;;;;;;5015867;28;20266;-81
2021/03/09 08:44:20;;;;;;;24.37;17.83;;;;;;;;;;5011892;28;20187;-81
2021/03/09 08:47:02;;;;;;;22.03;17.20;;;;;;;;;;5018173;28;20240;-81
2021/03/09 08:49:44;;;;;;;24.87;18.20;;;;;;;;;;5014535;28;20191;-79
2021/03/09 08:52:11;;;;;;;21.87;16.93;;;;;;;;;;5013081;28;20183;-80
2021/03/09 08:54:41;;;;;;;23.70;17.80;;;;;;;;;;5014310;28;20207;-81
2021/03/09 08:57:08;;;;;;;26.47;17.93;;;;;;;;;;5011121;28;20202;-81
2021/03/09 08:59:35;;;;;;;25.73;18.33;;;;;;;;;;5015817;28;20179;-80
2021/03/09 09:02:15;;;;;;;24.13;18.03;;;;;;;;;;5003153;28;20185;-81
2021/03/09 09:04:42;;;;;;;24.67;18.00;;;;;;;;;;5010169;28;20186;-81
2021/03/09 09:07:18;;;;;;;26.77;17.90;;;;;;;;;;5018393;23;20231;-81
2021/03/09 09:09:44;;;;;;;22.57;18.20;;;;;;;;;;5025713;28;20570;-81
2021/03/09 09:12:19;;;;;;;23.73;17.10;;;;;;;;;;5029328;28;20187;-81
2021/03/09 09:14:45;;;;;;;24.37;18.07;;;;;;;;;;5027772;28;20248;-81
2021/03/09 09:17:12;;;;;;;25.50;18.77;;;;;;;;;;5035729;22;20226;-81
2021/03/09 09:19:38;;;;;;;25.43;18.83;;;;;;;;;;5045112;28;20190;-80
2021/03/09 09:22:04;;;;;;;24.93;17.37;;;;;;;;;;5037832;28;20191;-81
2021/03/09 09:24:30;;;;;;;20.60;16.93;;;;;;;;;;5041681;28;20183;-81
2021/03/09 09:27:03;;;;;;;23.23;17.97;;;;;;;;;;5040762;28;20235;-80
2021/03/09 09:29:30;;;;;;;25.07;18.27;;;;;;;;;;5031862;28;20193;-82
2021/03/09 09:31:57;;;;;;;24.10;18.33;;;;;;;;;;5033766;28;20245;-81
2021/03/09 09:34:32;;;;;;;25.20;18.57;;;;;;;;;;5029172;28;20208;-81
2021/03/09 09:36:58;;;;;;;25.17;18.93;;;;;;;;;;5028253;28;20228;-81
2021/03/09 09:39:34;;;;;;;25.97;18.87;;;;;;;;;;5027561;28;20178;-77
2021/03/09 09:42:38;;;;;;;24.97;18.53;;;;;;;;;;5025724;28;20182;-75
2021/03/09 09:45:04;;;;;;;24.63;18.37;;;;;;;;;;5026627;28;20209;-80
2021/03/09 09:47:30;;;;;;;25.37;17.90;;;;;;;;;;5019918;28;20630;-79
2021/03/09 09:49:56;;;;;;;23.63;17.47;;;;;;;;;;5018365;28;20562;-79
2021/03/09 09:52:22;;;;;;;25.33;19.07;;;;;;;;;;5026533;28;20192;-79
2021/03/09 09:54:54;;;;;;;24.23;18.07;;;;;;;;;;5029779;28;20827;-79
2021/03/09 09:57:21;;;;;;;22.03;17.57;;;;;;;;;;5032653;28;20213;-79
2021/03/09 09:59:51;;;;;;;24.07;18.47;;;;;;;;;;5023904;28;20227;-74
2021/03/09 10:02:21;;;;;;;55.27;34.83;;;;;;;;;;5024119;28;20216;-77
2021/03/09 10:04:47;;;;;;;25.27;18.80;;;;;;;;;;5023638;28;20172;-79
2021/03/09 10:07:23;;;;;;;26.43;18.80;;;;;;;;;;5021230;28;20256;-79
2021/03/09 10:10:06;;;;;;;23.37;18.07;;;;;;;;;;5026339;28;20194;-78
2021/03/09 10:12:32;;;;;;;24.73;19.30;;;;;;;;;;5029116;28;20186;-79
2021/03/09 10:14:58;;;;;;;22.63;18.40;;;;;;;;;;5027953;28;20206;-78
2021/03/09 10:17:25;;;;;;;25.13;19.07;;;;;;;;;;5028717;28;20202;-79
2021/03/09 10:23:01;;;;;;;24.63;18.33;;;;;;;;;;5028488;28;20180;-79
2021/03/09 10:25:27;;;;;;;25.93;19.23;;;;;;;;;;5030198;28;20170;-78
2021/03/09 10:28:01;;;;;;;33.07;18.87;;;;;;;;;;5028941;28;20245;-79
2021/03/09 10:30:35;;;;;;;21.07;17.23;;;;;;;;;;5029437;28;20166;-79
2021/03/09 10:33:08;;;;;;;26.70;18.67;;;;;;;;;;5029160;28;20190;-79
2021/03/09 10:35:34;;;;;;;24.43;18.23;;;;;;;;;;5028531;28;20250;-79
2021/03/09 10:37:59;;;;;;;23.03;18.43;;;;;;;;;;5027180;28;20226;-79
2021/03/09 10:40:33;;;;;;;25.97;19.00;;;;;;;;;;5029781;28;20189;-79
2021/03/09 10:43:01;;;;;;;26.80;18.80;;;;;;;;;;5038044;28;20171;-80
2021/03/09 10:45:29;;;;;;;22.73;18.90;;;;;;;;;;5029866;28;20197;-78
2021/03/09 10:47:56;;;;;;;48.33;29.70;;;;;;;;;;5033190;28;20226;-79
2021/03/09 10:50:42;;;;;;;31.57;23.00;;;;;;;;;;5034879;28;20210;-76
2021/03/09 10:53:09;;;;;;;24.00;19.07;;;;;;;;;;5036487;28;20257;-79
2021/03/09 10:55:37;;;;;;;26.63;19.77;;;;;;;;;;5039861;28;20653;-79
2021/03/09 10:58:06;;;;;;;25.37;19.30;;;;;;;;;;5038584;28;20195;-78
2021/03/09 11:00:33;;;;;;;27.63;19.50;;;;;;;;;;5035654;28;20184;-77
2021/03/09 11:02:59;;;;;;;24.73;19.77;;;;;;;;;;5034856;28;20191;-78
2021/03/09 11:05:25;;;;;;;25.03;19.83;;;;;;;;;;5038285;28;20183;-79
2021/03/09 11:07:52;;;;;;;24.93;19.27;;;;;;;;;;5033651;28;20198;-78
2021/03/09 11:10:19;;;;;;;24.97;19.83;;;;;;;;;;5029788;28;20183;-79
2021/03/09 11:12:45;;;;;;;22.80;19.07;;;;;;;;;;5029082;28;20671;-78
2021/03/09 11:15:11;;;;;;;27.23;19.57;;;;;;;;;;5037068;28;20206;-79
2021/03/09 11:17:38;;;;;;;26.30;19.23;;;;;;;;;;5022042;28;20224;-79
2021/03/09 11:20:07;;;;;;;24.60;18.40;;;;;;;;;;5030265;28;20175;-80
2021/03/09 11:22:34;;;;;;;30.47;19.90;;;;;;;;;;5033510;28;20227;-79
2021/03/09 11:25:00;;;;;;;21.43;18.03;;;;;;;;;;5030878;28;20242;-79
2021/03/09 11:27:26;;;;;;;25.70;18.77;;;;;;;;;;5027331;28;20196;-78
2021/03/09 11:29:52;;;;;;;21.97;18.73;;;;;;;;;;5038628;28;20182;-76
2021/03/09 11:32:18;;;;;;;26.67;20.77;;;;;;;;;;5037143;28;20713;-79
2021/03/09 11:34:44;;;;;;;24.13;19.23;;;;;;;;;;5032322;28;20789;-78
2021/03/09 11:37:10;;;;;;;24.20;19.43;;;;;;;;;;5037264;28;20252;-79
2021/03/09 11:39:36;;;;;;;26.90;20.37;;;;;;;;;;5034541;28;20181;-78
2021/03/09 11:42:02;;;;;;;25.00;19.10;;;;;;;;;;5036033;28;20639;-78
2021/03/09 11:44:28;;;;;;;23.97;18.90;;;;;;;;;;5041308;28;20207;-78
2021/03/09 11:46:54;;;;;;;24.93;17.80;;;;;;;;;;5052468;28;20212;-79
2021/03/09 11:49:21;;;;;;;24.30;19.23;;;;;;;;;;5037542;28;20187;-77
2021/03/09 11:51:49;;;;;;;42.63;27.30;;;;;;;;;;5039016;28;20192;-79
2021/03/09 11:54:15;;;;;;;24.37;19.83;;;;;;;;;;5038911;28;20211;-78
2021/03/09 11:56:41;;;;;;;25.37;19.47;;;;;;;;;;5038629;28;20200;-78
2021/03/09 11:59:07;;;;;;;25.23;19.73;;;;;;;;;;5031535;28;20184;-79
2021/03/09 12:01:34;;;;;;;79.77;40.97;;;;;;;;;;5031891;28;20180;-78
2021/03/09 12:04:00;;;;;;;24.57;19.33;;;;;;;;;;5035780;28;20184;-78
2021/03/09 12:06:26;;;;;;;28.57;22.10;;;;;;;;;;5028874;28;20309;-78
2021/03/09 12:08:52;;;;;;;27.03;20.27;;;;;;;;;;5035892;28;20215;-79
2021/03/09 12:11:19;;;;;;;23.77;18.87;;;;;;;;;;5036568;28;20193;-79
2021/03/09 12:13:46;;;;;;;26.60;19.40;;;;;;;;;;5032855;28;20218;-80
2021/03/09 12:16:12;;;;;;;27.53;20.97;;;;;;;;;;5032089;28;20179;-78
2021/03/09 12:18:38;;;;;;;26.10;19.93;;;;;;;;;;5034639;28;20196;-78
2021/03/09 12:21:04;;;;;;;26.83;19.43;;;;;;;;;;5037342;28;20177;-78
2021/03/09 12:23:31;;;;;;;26.90;18.03;;;;;;;;;;5017976;28;20217;-78
2021/03/09 12:25:57;;;;;;;20.97;18.07;;;;;;;;;;5031900;28;20252;-78
2021/03/09 12:28:23;;;;;;;28.70;19.80;;;;;;;;;;5032988;28;20191;-78
2021/03/09 12:30:50;;;;;;;30.47;19.07;;;;;;;;;;5025932;28;20694;-79
2021/03/09 12:33:16;;;;;;;30.27;19.37;;;;;;;;;;5020734;28;20243;-79
2021/03/09 12:35:43;;;;;;;30.77;19.87;;;;;;;;;;5021921;28;20196;-77
2021/03/09 12:38:09;;;;;;;20.37;17.87;;;;;;;;;;5039484;28;20273;-79
2021/03/09 12:40:36;;;;;;;25.77;19.53;;;;;;;;;;5037237;28;20183;-77
2021/03/09 12:43:02;;;;;;;31.20;22.67;;;;;;;;;;5037174;28;20192;-79
2021/03/09 12:45:29;;;;;;;24.77;19.50;;;;;;;;;;5039246;28;20668;-79
2021/03/09 12:47:55;;;;;;;24.97;19.27;;;;;;;;;;5036552;28;20222;-78
2021/03/09 12:50:21;;;;;;;25.20;19.47;;;;;;;;;;5037036;28;20198;-78
2021/03/09 12:52:48;;;;;;;25.43;19.63;;;;;;;;;;5034920;28;20213;-78
2021/03/09 12:55:15;;;;;;;25.30;19.60;;;;;;;;;;5037625;28;20200;-76
2021/03/09 12:57:41;;;;;;;26.30;19.67;;;;;;;;;;5037945;28;20670;-78
2021/03/09 13:00:09;;;;;;;29.13;19.80;;;;;;;;;;5036009;28;20181;-78
2021/03/09 13:02:35;;;;;;;31.47;21.07;;;;;;;;;;5035049;28;20185;-78
2021/03/09 13:05:01;;;;;;;26.90;20.23;;;;;;;;;;5035007;28;20197;-78
2021/03/09 13:07:28;;;;;;;23.10;19.97;;;;;;;;;;5024285;28;20229;-78
2021/03/09 13:09:55;;;;;;;30.23;24.70;;;;;;;;;;5028547;28;20609;-78
2021/03/09 13:12:21;;;;;;;25.77;19.63;;;;;;;;;;5035975;28;20185;-79
2021/03/09 13:14:47;;;;;;;23.77;19.27;;;;;;;;;;5030963;28;20212;-79
2021/03/09 13:17:13;;;;;;;26.27;19.27;;;;;;;;;;5024958;28;20209;-78
2021/03/09 13:19:40;;;;;;;26.03;21.00;;;;;;;;;;5025539;28;20217;-79
2021/03/09 13:22:06;;;;;;;23.17;19.67;;;;;;;;;;5032575;28;20185;-79
2021/03/09 13:24:32;;;;;;;23.10;20.40;;;;;;;;;;5023849;28;20199;-78
2021/03/09 13:26:58;;;;;;;25.13;20.37;;;;;;;;;;5031888;28;20212;-78
2021/03/09 13:29:24;;;;;;;23.13;20.27;;;;;;;;;;5034634;28;20188;-77
2021/03/09 13:31:50;;;;;;;27.30;19.60;;;;;;;;;;5015830;28;20212;-79
2021/03/09 13:34:16;;;;;;;24.20;20.50;;;;;;;;;;5032117;28;20205;-78
2021/03/09 13:36:43;;;;;;;29.17;20.53;;;;;;;;;;5029229;28;20210;-79
2021/03/09 13:39:10;;;;;;;30.13;20.40;;;;;;;;;;5025873;28;20192;-79
2021/03/09 13:41:37;;;;;;;24.03;19.30;;;;;;;;;;5022778;28;20266;-79
2021/03/09 13:44:04;;;;;;;21.30;18.83;;;;;;;;;;5031116;28;20267;-79
2021/03/09 13:46:30;;;;;;;24.20;19.27;;;;;;;;;;5033284;28;20216;-79
2021/03/09 13:48:56;;;;;;;24.57;19.60;;;;;;;;;;5037327;28;20238;-79
2021/03/09 13:51:22;;;;;;;48.43;28.63;;;;;;;;;;5037343;28;20185;-80
2021/03/09 13:53:50;;;;;;;40.30;26.37;;;;;;;;;;5036826;28;20195;-79
2021/03/09 13:56:16;;;;;;;26.03;20.30;;;;;;;;;;5036694;28;20176;-79
2021/03/09 13:58:42;;;;;;;36.23;24.07;;;;;;;;;;5034654;28;20186;-79
2021/03/09 14:01:09;;;;;;;24.40;20.20;;;;;;;;;;5036173;28;20259;-80
2021/03/09 14:03:35;;;;;;;23.60;19.77;;;;;;;;;;5034960;28;20275;-79
2021/03/09 14:06:01;;;;;;;24.70;19.90;;;;;;;;;;5029435;28;20218;-78
2021/03/09 14:08:27;;;;;;;24.17;20.20;;;;;;;;;;5032816;28;20183;-79
2021/03/09 14:10:54;;;;;;;24.93;20.03;;;;;;;;;;5030054;28;20184;-79
2021/03/09 14:13:19;;;;;;;26.50;18.70;;;;;;;;;;5027835;28;20232;-78
2021/03/09 14:15:46;;;;;;;25.33;19.07;;;;;;;;;;5037902;28;20192;-79
2021/03/09 14:18:12;;;;;;;28.93;21.53;;;;;;;;;;5030163;28;20296;-79
2021/03/09 14:20:38;;;;;;;23.73;20.20;;;;;;;;;;5012809;28;20718;-79
2021/03/09 14:23:04;;;;;;;24.37;20.00;;;;;;;;;;5033719;28;20193;-78
2021/03/09 14:25:31;;;;;;;24.23;20.13;;;;;;;;;;5033975;28;20187;-79
2021/03/09 14:27:57;;;;;;;23.70;19.67;;;;;;;;;;5034695;28;20205;-78
2021/03/09 14:30:23;;;;;;;26.60;20.27;;;;;;;;;;5035167;28;20188;-79
2021/03/09 14:32:50;;;;;;;22.60;18.40;;;;;;;;;;5031985;28;20706;-79